createdAt,value
2022-11-30T00:00:47.286Z,0
2022-11-30T00:01:47.346Z,0
2022-11-30T00:02:47.823Z,0
2022-11-30T00:03:47.228Z,0
2022-11-30T00:04:47.935Z,0
2022-11-30T00:05:47.611Z,0
2022-11-30T00:06:47.170Z,0
2022-11-30T00:07:47.636Z,0
2022-11-30T00:08:47.138Z,0
2022-11-30T00:09:46.870Z,0
2022-11-30T00:10:46.842Z,0
2022-11-30T00:11:46.841Z,0
2022-11-30T00:12:47.336Z,0
2022-11-30T00:13:47.077Z,0
2022-11-30T00:14:48.069Z,0
2022-11-30T00:15:46.757Z,0
2022-11-30T00:16:47.266Z,0
2022-11-30T00:17:47.272Z,0
2022-11-30T00:18:47.357Z,0
2022-11-30T00:19:46.949Z,0
2022-11-30T00:20:46.701Z,0
2022-11-30T00:21:46.930Z,0
2022-11-30T00:22:46.900Z,0
2022-11-30T00:23:46.869Z,0
2022-11-30T00:24:47.505Z,0
2022-11-30T00:25:46.714Z,0
2022-11-30T00:26:47.076Z,0
2022-11-30T00:27:46.804Z,0
2022-11-30T00:28:46.557Z,0
2022-11-30T00:29:46.765Z,0
2022-11-30T00:30:46.938Z,0
2022-11-30T00:31:46.732Z,0
2022-11-30T00:32:46.981Z,0
2022-11-30T00:33:46.476Z,0
2022-11-30T00:34:47.324Z,0
2022-11-30T00:35:46.661Z,0
2022-11-30T00:36:46.690Z,0
2022-11-30T00:37:46.910Z,0
2022-11-30T00:38:46.422Z,0
2022-11-30T00:39:46.584Z,0
2022-11-30T00:40:46.329Z,0
2022-11-30T00:41:46.560Z,0
2022-11-30T00:42:46.542Z,0
2022-11-30T00:43:46.524Z,0
2022-11-30T00:44:47.335Z,0
2022-11-30T00:45:46.368Z,0
2022-11-30T00:46:45.954Z,0
2022-11-30T00:47:46.207Z,0
2022-11-30T00:48:46.686Z,0
2022-11-30T00:49:46.702Z,0
2022-11-30T00:50:46.421Z,0
2022-11-30T00:51:46.123Z,0
2022-11-30T00:52:46.658Z,0
2022-11-30T00:53:46.383Z,0
2022-11-30T00:54:47.116Z,0
2022-11-30T00:55:46.098Z,0
2022-11-30T00:56:45.795Z,0
2022-11-30T00:57:46.313Z,0
2022-11-30T00:58:46.519Z,0
2022-11-30T00:59:45.995Z,0
2022-11-30T01:00:46.277Z,0
2022-11-30T01:01:46.456Z,0
2022-11-30T01:02:46.339Z,0
2022-11-30T01:03:45.925Z,0
2022-11-30T01:04:46.459Z,0
2022-11-30T01:05:46.432Z,0
2022-11-30T01:06:46.164Z,0
2022-11-30T01:07:46.114Z,0
2022-11-30T01:08:46.124Z,0
2022-11-30T01:09:46.341Z,0
2022-11-30T01:10:46.060Z,0
2022-11-30T01:11:46.022Z,0
2022-11-30T01:12:46.042Z,0
2022-11-30T01:13:45.734Z,0
2022-11-30T01:14:45.932Z,0
2022-11-30T01:15:46.360Z,0
2022-11-30T01:16:45.967Z,0
2022-11-30T01:17:46.179Z,0
2022-11-30T01:18:45.918Z,0
2022-11-30T01:19:45.890Z,0
2022-11-30T01:20:45.629Z,0
2022-11-30T01:21:45.879Z,0
2022-11-30T01:22:46.114Z,0
2022-11-30T01:23:45.568Z,0
2022-11-30T01:24:46.322Z,0
2022-11-30T01:25:45.552Z,0
2022-11-30T01:26:45.769Z,0
2022-11-30T01:27:45.752Z,0
2022-11-30T01:28:45.986Z,0
2022-11-30T01:29:45.199Z,0
2022-11-30T01:30:46.055Z,0
2022-11-30T01:31:45.928Z,0
2022-11-30T01:32:45.404Z,0
2022-11-30T01:33:45.889Z,0
2022-11-30T01:35:17.440Z,0
2022-11-30T01:35:45.342Z,0
2022-11-30T01:36:45.333Z,0
2022-11-30T01:37:45.870Z,0
2022-11-30T01:38:45.583Z,0
2022-11-30T01:39:45.529Z,0
2022-11-30T01:40:45.545Z,0
2022-11-30T01:41:45.775Z,0
2022-11-30T01:42:45.541Z,0
2022-11-30T01:43:45.228Z,0
2022-11-30T01:44:45.718Z,0
2022-11-30T01:45:45.520Z,0
2022-11-30T01:46:45.542Z,0
2022-11-30T01:47:45.400Z,0
2022-11-30T01:48:45.122Z,0
2022-11-30T01:49:45.610Z,0
2022-11-30T01:50:45.338Z,0
2022-11-30T01:51:45.329Z,0
2022-11-30T01:52:45.307Z,0
2022-11-30T01:53:45.584Z,0
2022-11-30T01:54:45.674Z,0
2022-11-30T01:55:44.801Z,0
2022-11-30T01:56:45.279Z,0
2022-11-30T01:57:45.236Z,0
2022-11-30T01:58:44.690Z,0
2022-11-30T01:59:45.204Z,0
2022-11-30T02:00:45.173Z,0
2022-11-30T02:01:45.165Z,0
2022-11-30T02:02:45.152Z,0
2022-11-30T02:03:45.394Z,0
2022-11-30T02:04:45.083Z,0
2022-11-30T02:05:45.092Z,0
2022-11-30T02:06:44.808Z,0
2022-11-30T02:07:45.782Z,0
2022-11-30T02:08:45.458Z,0
2022-11-30T02:09:45.030Z,0
2022-11-30T02:10:45.272Z,0
2022-11-30T02:11:44.719Z,0
2022-11-30T02:12:44.977Z,0
2022-11-30T02:13:45.236Z,0
2022-11-30T02:14:45.584Z,0
2022-11-30T02:15:44.974Z,0
2022-11-30T02:16:45.105Z,0
2022-11-30T02:17:44.362Z,0
2022-11-30T02:18:45.134Z,0
2022-11-30T02:19:44.870Z,0
2022-11-30T02:20:44.859Z,0
2022-11-30T02:21:44.933Z,0
2022-11-30T02:22:45.026Z,0
2022-11-30T02:23:50.206Z,0
2022-11-30T02:24:45.226Z,0
2022-11-30T02:25:44.850Z,0
2022-11-30T02:26:45.362Z,0
2022-11-30T02:27:44.948Z,0
2022-11-30T02:28:44.704Z,0
2022-11-30T02:29:44.681Z,0
2022-11-30T02:30:45.050Z,0
2022-11-30T02:31:44.903Z,0
2022-11-30T02:32:45.029Z,0
2022-11-30T02:33:44.351Z,0
2022-11-30T02:34:44.660Z,0
2022-11-30T02:35:44.815Z,0
2022-11-30T02:36:44.788Z,0
2022-11-30T02:37:44.513Z,0
2022-11-30T02:38:44.743Z,0
2022-11-30T02:39:44.489Z,0
2022-11-30T02:40:43.943Z,0
2022-11-30T02:41:45.296Z,0
2022-11-30T02:42:44.453Z,0
2022-11-30T02:43:44.653Z,0
2022-11-30T02:44:45.035Z,0
2022-11-30T02:45:44.386Z,0
2022-11-30T02:46:44.536Z,0
2022-11-30T02:47:44.073Z,0
2022-11-30T02:48:44.316Z,0
2022-11-30T02:49:44.302Z,0
2022-11-30T02:50:44.407Z,0
2022-11-30T02:51:44.401Z,0
2022-11-30T02:52:44.880Z,0
2022-11-30T02:53:44.365Z,0
2022-11-30T02:54:44.875Z,0
2022-11-30T02:55:44.566Z,0
2022-11-30T02:56:44.551Z,0
2022-11-30T02:57:44.555Z,0
2022-11-30T02:58:44.540Z,0
2022-11-30T02:59:44.501Z,0
2022-11-30T03:00:44.508Z,0
2022-11-30T03:01:44.869Z,0
2022-11-30T03:02:44.829Z,0
2022-11-30T03:03:44.431Z,0
2022-11-30T03:04:44.977Z,0
2022-11-30T03:05:44.651Z,0
2022-11-30T03:06:44.379Z,0
2022-11-30T03:07:44.279Z,0
2022-11-30T03:08:44.600Z,0
2022-11-30T03:09:44.317Z,0
2022-11-30T03:10:43.790Z,0
2022-11-30T03:11:44.024Z,0
2022-11-30T03:12:44.021Z,0
2022-11-30T03:13:44.270Z,0
2022-11-30T03:14:44.679Z,0
2022-11-30T03:15:44.699Z,0
2022-11-30T03:16:44.474Z,0
2022-11-30T03:17:44.203Z,0
2022-11-30T03:18:44.150Z,0
2022-11-30T03:19:43.880Z,0
2022-11-30T03:20:43.871Z,0
2022-11-30T03:21:43.848Z,0
2022-11-30T03:22:44.091Z,0
2022-11-30T03:23:43.878Z,0
2022-11-30T03:24:43.788Z,0
2022-11-30T03:25:44.291Z,0
2022-11-30T03:26:44.014Z,0
2022-11-30T03:27:43.491Z,0
2022-11-30T03:28:44.234Z,0
2022-11-30T03:29:44.292Z,0
2022-11-30T03:30:44.332Z,0
2022-11-30T03:31:43.414Z,0
2022-11-30T03:32:44.186Z,0
2022-11-30T03:50:29.920Z,0
2022-11-30T03:51:29.276Z,0
2022-11-30T03:52:29.502Z,0
2022-11-30T03:53:29.493Z,0
2022-11-30T03:54:29.462Z,0
2022-11-30T03:55:29.279Z,0
2022-11-30T03:56:29.172Z,0
2022-11-30T03:57:29.670Z,0
2022-11-30T03:58:29.138Z,0
2022-11-30T03:59:29.120Z,0
2022-11-30T04:00:29.632Z,0
2022-11-30T04:01:29.803Z,0
2022-11-30T04:02:29.723Z,0
2022-11-30T04:03:29.399Z,0
2022-11-30T04:04:29.528Z,0
2022-11-30T04:05:29.046Z,0
2022-11-30T04:06:29.591Z,0
2022-11-30T04:07:29.557Z,0
2022-11-30T04:08:29.198Z,0
2022-11-30T04:09:29.443Z,0
2022-11-30T04:10:29.158Z,0
2022-11-30T04:11:28.920Z,0
2022-11-30T04:12:29.133Z,0
2022-11-30T04:13:28.857Z,0
2022-11-30T04:14:28.838Z,0
2022-11-30T04:15:29.068Z,0
2022-11-30T04:16:28.901Z,0
2022-11-30T04:17:29.034Z,0
2022-11-30T04:18:28.761Z,0
2022-11-30T04:19:28.742Z,0
2022-11-30T04:20:28.723Z,0
2022-11-30T04:21:29.226Z,0
2022-11-30T04:22:29.334Z,0
2022-11-30T04:23:28.421Z,0
2022-11-30T04:24:28.899Z,0
2022-11-30T04:25:28.632Z,0
2022-11-30T04:26:28.955Z,0
2022-11-30T04:27:28.591Z,0
2022-11-30T04:28:28.574Z,0
2022-11-30T04:29:28.564Z,0
2022-11-30T04:30:28.793Z,0
2022-11-30T04:31:28.783Z,0
2022-11-30T04:32:28.500Z,0
2022-11-30T04:33:28.519Z,0
2022-11-30T04:34:28.716Z,0
2022-11-30T04:35:28.699Z,0
2022-11-30T04:36:28.677Z,0
2022-11-30T04:37:28.405Z,0
2022-11-30T04:38:29.013Z,0
2022-11-30T04:39:28.631Z,0
2022-11-30T04:40:28.356Z,0
2022-11-30T04:41:28.340Z,0
2022-11-30T04:42:28.830Z,0
2022-11-30T04:43:28.567Z,0
2022-11-30T04:44:28.793Z,0
2022-11-30T04:45:31.257Z,0
2022-11-30T04:46:28.831Z,0
2022-11-30T04:47:28.488Z,0
2022-11-30T04:48:28.724Z,0
2022-11-30T04:49:28.446Z,0
2022-11-30T04:50:28.435Z,0
2022-11-30T04:51:28.413Z,0
2022-11-30T04:52:28.386Z,0
2022-11-30T04:53:28.117Z,0
2022-11-30T04:54:28.718Z,0
2022-11-30T04:55:28.349Z,0
2022-11-30T04:56:28.062Z,0
2022-11-30T04:57:28.309Z,0
2022-11-30T04:58:28.036Z,0
2022-11-30T04:59:28.274Z,0
2022-11-30T05:00:28.511Z,0
2022-11-30T05:01:28.784Z,0
2022-11-30T05:02:28.224Z,0
2022-11-30T05:03:28.211Z,0
2022-11-30T05:04:28.198Z,0
2022-11-30T05:05:28.159Z,0
2022-11-30T05:06:27.891Z,0
2022-11-30T05:07:28.423Z,0
2022-11-30T05:08:28.363Z,0
2022-11-30T05:09:28.087Z,0
2022-11-30T05:10:28.432Z,0
2022-11-30T05:11:28.065Z,0
2022-11-30T05:12:28.288Z,0
2022-11-30T05:13:28.014Z,0
2022-11-30T05:14:28.042Z,0
2022-11-30T05:15:28.291Z,0
2022-11-30T05:16:28.073Z,0
2022-11-30T05:17:27.942Z,0
2022-11-30T05:18:28.181Z,0
2022-11-30T05:19:27.903Z,0
2022-11-30T05:20:28.143Z,0
2022-11-30T05:21:27.886Z,0
2022-11-30T05:22:27.590Z,0
2022-11-30T05:23:27.838Z,0
2022-11-30T05:24:28.104Z,0
2022-11-30T05:25:27.804Z,0
2022-11-30T05:26:28.142Z,0
2022-11-30T05:27:29.786Z,0
2022-11-30T05:28:27.997Z,0
2022-11-30T05:29:27.979Z,0
2022-11-30T05:30:28.042Z,0
2022-11-30T05:31:27.669Z,0
2022-11-30T05:32:27.933Z,0
2022-11-30T05:33:27.395Z,0
2022-11-30T05:34:27.629Z,0
2022-11-30T05:35:27.405Z,0
2022-11-30T05:36:27.604Z,0
2022-11-30T05:37:27.850Z,0
2022-11-30T05:38:27.340Z,0
2022-11-30T05:39:27.560Z,0
2022-11-30T05:40:27.530Z,0
2022-11-30T05:41:27.266Z,0
2022-11-30T05:42:27.850Z,0
2022-11-30T05:43:27.214Z,0
2022-11-30T05:44:27.453Z,0
2022-11-30T05:45:27.179Z,0
2022-11-30T05:46:27.741Z,0
2022-11-30T05:47:26.891Z,0
2022-11-30T05:48:27.374Z,0
2022-11-30T05:49:27.364Z,0
2022-11-30T05:50:26.880Z,0
2022-11-30T05:51:27.588Z,0
2022-11-30T05:52:27.303Z,0
2022-11-30T05:53:27.305Z,0
2022-11-30T05:54:27.062Z,0
2022-11-30T05:55:27.549Z,0
2022-11-30T05:56:27.026Z,0
2022-11-30T05:57:27.475Z,0
2022-11-30T05:58:27.561Z,0
2022-11-30T05:59:27.188Z,0
2022-11-30T06:00:27.169Z,0
2022-11-30T06:01:27.421Z,0
2022-11-30T06:02:33.790Z,0
2022-11-30T06:03:27.375Z,0
2022-11-30T06:04:27.372Z,0
2022-11-30T06:05:27.333Z,0
2022-11-30T06:06:27.061Z,0
2022-11-30T06:07:27.526Z,0
2022-11-30T06:08:27.297Z,0
2022-11-30T06:09:27.006Z,0
2022-11-30T06:10:27.245Z,0
2022-11-30T06:11:26.981Z,0
2022-11-30T06:12:26.687Z,0
2022-11-30T06:13:34.101Z,0
2022-11-30T06:14:27.214Z,0
2022-11-30T06:15:27.161Z,0
2022-11-30T06:16:27.085Z,0
2022-11-30T06:17:26.610Z,0
2022-11-30T06:18:27.101Z,0
2022-11-30T06:19:26.584Z,4
2022-11-30T06:20:26.812Z,4
2022-11-30T06:21:31.593Z,4
2022-11-30T06:22:26.513Z,0
2022-11-30T06:23:26.496Z,4
2022-11-30T06:24:26.493Z,4
2022-11-30T06:25:26.712Z,4
2022-11-30T06:26:26.481Z,4
2022-11-30T06:27:27.116Z,4
2022-11-30T06:28:26.408Z,8
2022-11-30T06:29:27.144Z,8
2022-11-30T06:30:26.666Z,8
2022-11-30T06:31:26.808Z,8
2022-11-30T06:32:26.328Z,16
2022-11-30T06:33:26.311Z,16
2022-11-30T06:34:26.551Z,20
2022-11-30T06:35:26.814Z,20
2022-11-30T06:36:30.092Z,20
2022-11-30T06:37:27.191Z,24
2022-11-30T06:38:26.661Z,32
2022-11-30T06:40:13.298Z,36
2022-11-30T06:40:27.124Z,40
2022-11-30T06:41:26.600Z,40
2022-11-30T06:42:27.115Z,44
2022-11-30T06:43:26.815Z,52
2022-11-30T06:44:26.807Z,56
2022-11-30T06:45:26.981Z,64
2022-11-30T06:46:26.872Z,68
2022-11-30T06:47:26.660Z,76
2022-11-30T06:48:26.644Z,80
2022-11-30T06:49:26.869Z,88
2022-11-30T06:50:27.111Z,100
2022-11-30T06:51:26.585Z,108
2022-11-30T06:52:27.073Z,116
2022-11-30T06:53:26.539Z,128
2022-11-30T06:54:26.807Z,136
2022-11-30T06:55:26.761Z,148
2022-11-30T06:56:27.014Z,160
2022-11-30T06:57:26.985Z,172
2022-11-30T06:58:26.965Z,184
2022-11-30T06:59:26.695Z,200
2022-11-30T07:00:26.677Z,216
2022-11-30T07:01:27.207Z,232
2022-11-30T07:02:26.920Z,244
2022-11-30T07:03:26.618Z,260
2022-11-30T07:04:26.797Z,276
2022-11-30T07:05:26.591Z,296
2022-11-30T07:06:26.061Z,316
2022-11-30T07:07:26.927Z,340
2022-11-30T07:08:26.788Z,368
2022-11-30T07:09:26.516Z,392
2022-11-30T07:10:27.701Z,420
2022-11-30T07:11:26.219Z,444
2022-11-30T07:12:26.200Z,460
2022-11-30T07:13:26.439Z,476
2022-11-30T07:14:26.168Z,492
2022-11-30T07:15:26.154Z,508
2022-11-30T07:16:26.640Z,528
2022-11-30T07:17:26.479Z,544
2022-11-30T07:18:34.504Z,564
2022-11-30T07:19:26.083Z,584
2022-11-30T07:20:26.566Z,608
2022-11-30T07:21:26.302Z,636
2022-11-30T07:22:26.023Z,660
2022-11-30T07:23:26.006Z,684
2022-11-30T07:24:26.251Z,716
2022-11-30T07:25:26.233Z,748
2022-11-30T07:26:26.460Z,780
2022-11-30T07:27:26.187Z,812
2022-11-30T07:28:26.169Z,848
2022-11-30T07:29:26.160Z,888
2022-11-30T07:30:25.898Z,936
2022-11-30T07:31:26.113Z,980
2022-11-30T07:32:25.594Z,1020
2022-11-30T07:33:26.163Z,1056
2022-11-30T07:34:26.089Z,1088
2022-11-30T07:35:25.795Z,1112
2022-11-30T07:36:26.034Z,1152
2022-11-30T07:37:26.006Z,1196
2022-11-30T07:38:25.987Z,1236
2022-11-30T07:39:26.023Z,1272
2022-11-30T07:40:25.800Z,1296
2022-11-30T07:41:26.203Z,1332
2022-11-30T07:42:25.916Z,1376
2022-11-30T07:43:25.903Z,1420
2022-11-30T07:44:26.144Z,1468
2022-11-30T07:45:25.609Z,1512
2022-11-30T07:46:26.381Z,1556
2022-11-30T07:47:25.848Z,1596
2022-11-30T07:48:25.803Z,1632
2022-11-30T07:49:25.882Z,1660
2022-11-30T07:50:26.132Z,1692
2022-11-30T07:51:26.022Z,1732
2022-11-30T07:52:25.745Z,1772
2022-11-30T07:53:25.718Z,1808
2022-11-30T07:54:25.956Z,1820
2022-11-30T07:55:25.945Z,1812
2022-11-30T07:56:25.411Z,1804
2022-11-30T07:57:25.909Z,1824
2022-11-30T07:58:25.665Z,1852
2022-11-30T07:59:25.613Z,1860
2022-11-30T08:00:25.887Z,1872
2022-11-30T08:01:25.931Z,1920
2022-11-30T08:02:26.000Z,1996
2022-11-30T08:03:25.293Z,2036
2022-11-30T08:04:25.547Z,2084
2022-11-30T08:05:25.849Z,2076
2022-11-30T08:06:25.527Z,2104
2022-11-30T08:07:25.713Z,2112
2022-11-30T08:08:25.716Z,2152
2022-11-30T08:09:28.198Z,2160
2022-11-30T08:10:25.812Z,2164
2022-11-30T08:11:25.695Z,2168
2022-11-30T08:12:25.661Z,2188
2022-11-30T08:13:25.369Z,2216
2022-11-30T08:14:25.374Z,2252
2022-11-30T08:15:36.095Z,2284
2022-11-30T08:16:26.035Z,2300
2022-11-30T08:17:25.563Z,2320
2022-11-30T08:18:25.287Z,2348
2022-11-30T08:19:25.521Z,2396
2022-11-30T08:20:25.121Z,2420
2022-11-30T08:21:25.567Z,2432
2022-11-30T08:22:25.236Z,2468
2022-11-30T08:23:25.458Z,2524
2022-11-30T08:24:25.493Z,2588
2022-11-30T08:25:25.407Z,2648
2022-11-30T08:26:25.134Z,2716
2022-11-30T08:27:25.121Z,2744
2022-11-30T08:28:25.101Z,2748
2022-11-30T08:29:25.342Z,2708
2022-11-30T08:30:32.666Z,2612
2022-11-30T08:31:25.597Z,2552
2022-11-30T08:32:25.303Z,2548
2022-11-30T08:33:27.378Z,2604
2022-11-30T08:34:25.000Z,2680
2022-11-30T08:35:24.474Z,2780
2022-11-30T08:36:24.704Z,2856
2022-11-30T08:37:25.276Z,2884
2022-11-30T08:38:25.212Z,2880
2022-11-30T08:39:25.163Z,2864
2022-11-30T08:40:24.899Z,2828
2022-11-30T08:41:24.876Z,2812
2022-11-30T08:42:24.862Z,2836
2022-11-30T08:43:25.098Z,2856
2022-11-30T08:44:24.586Z,2884
2022-11-30T08:45:25.061Z,2940
2022-11-30T08:46:57.113Z,3052
2022-11-30T08:47:25.401Z,3088
2022-11-30T08:48:25.013Z,3176
2022-11-30T09:00:57.180Z,4024
2022-11-30T09:02:07.356Z,4096
2022-11-30T09:03:07.028Z,4208
2022-11-30T09:04:06.983Z,4272
2022-11-30T09:05:07.418Z,4424
2022-11-30T09:06:07.099Z,4504
2022-11-30T09:07:07.593Z,4540
2022-11-30T09:08:07.921Z,4572
2022-11-30T09:09:07.302Z,4632
2022-11-30T09:10:07.553Z,4676
2022-11-30T09:11:07.517Z,4672
2022-11-30T09:12:07.257Z,4820
2022-11-30T09:13:07.501Z,5016
2022-11-30T09:14:07.226Z,4968
2022-11-30T09:15:07.937Z,4672
2022-11-30T09:16:07.732Z,4436
2022-11-30T09:17:06.970Z,4312
2022-11-30T09:18:07.470Z,4268
2022-11-30T09:19:07.811Z,4164
2022-11-30T09:20:07.397Z,3956
2022-11-30T09:21:07.101Z,3876
2022-11-30T09:22:07.410Z,3960
2022-11-30T09:23:06.814Z,4144
2022-11-30T09:24:06.829Z,4172
2022-11-30T09:25:07.040Z,4032
2022-11-30T09:26:06.911Z,3892
2022-11-30T09:27:07.263Z,3940
2022-11-30T09:28:13.154Z,4108
2022-11-30T09:29:07.001Z,4148
2022-11-30T09:30:07.246Z,3936
2022-11-30T09:31:07.461Z,3800
2022-11-30T09:32:07.014Z,3688
2022-11-30T09:33:06.945Z,3620
2022-11-30T09:34:07.160Z,3536
2022-11-30T09:35:13.057Z,3564
2022-11-30T09:36:06.858Z,3724
2022-11-30T09:37:07.154Z,4084
2022-11-30T09:38:06.576Z,4500
2022-11-30T09:39:06.814Z,4636
2022-11-30T09:40:06.803Z,4580
2022-11-30T09:41:06.778Z,4276
2022-11-30T09:42:06.505Z,3776
2022-11-30T09:43:06.233Z,3180
2022-11-30T09:44:06.472Z,2772
2022-11-30T09:45:06.976Z,2604
2022-11-30T09:46:06.693Z,2588
2022-11-30T09:47:06.675Z,2640
2022-11-30T09:48:07.143Z,2708
2022-11-30T09:49:06.673Z,2720
2022-11-30T09:50:06.372Z,2664
2022-11-30T09:51:06.878Z,2488
2022-11-30T09:52:06.337Z,2280
2022-11-30T09:53:06.595Z,2160
2022-11-30T09:54:06.568Z,2164
2022-11-30T09:55:06.562Z,2244
2022-11-30T09:56:06.283Z,2464
2022-11-30T09:57:06.515Z,2808
2022-11-30T09:58:06.785Z,3196
2022-11-30T09:59:06.753Z,3472
2022-11-30T10:00:06.734Z,3640
2022-11-30T10:01:12.218Z,3372
2022-11-30T10:02:06.711Z,3056
2022-11-30T10:03:06.931Z,2964
2022-11-30T10:04:06.484Z,3048
2022-11-30T10:05:06.668Z,3076
2022-11-30T10:06:06.652Z,3128
2022-11-30T10:07:06.614Z,3132
2022-11-30T10:08:06.630Z,3120
2022-11-30T10:09:06.070Z,2964
2022-11-30T10:10:38.690Z,2764
2022-11-30T10:11:05.782Z,2744
2022-11-30T10:12:06.289Z,2724
2022-11-30T10:13:06.258Z,2648
2022-11-30T10:14:05.984Z,2600
2022-11-30T10:15:07.800Z,2556
2022-11-30T10:16:06.276Z,2584
2022-11-30T10:17:06.191Z,2632
2022-11-30T10:18:06.425Z,2624
2022-11-30T10:19:06.152Z,2592
2022-11-30T10:20:06.303Z,2580
2022-11-30T10:21:06.162Z,2624
2022-11-30T10:22:06.117Z,2788
2022-11-30T10:23:06.353Z,2912
2022-11-30T10:24:06.335Z,2984
2022-11-30T10:25:13.877Z,3192
2022-11-30T10:26:06.059Z,3488
2022-11-30T10:27:06.308Z,3932
2022-11-30T10:28:51.273Z,4476
2022-11-30T10:29:06.055Z,4540
2022-11-30T10:30:05.974Z,4820
2022-11-30T10:31:06.179Z,5092
2022-11-30T10:32:05.691Z,5312
2022-11-30T10:33:05.672Z,5576
2022-11-30T10:34:05.908Z,5772
2022-11-30T10:35:05.635Z,6064
2022-11-30T10:36:06.259Z,6364
2022-11-30T10:37:06.157Z,6492
2022-11-30T10:38:05.591Z,6560
2022-11-30T10:39:05.857Z,6536
2022-11-30T10:40:05.559Z,6500
2022-11-30T10:41:06.063Z,6436
2022-11-30T10:42:05.782Z,6368
2022-11-30T10:43:06.025Z,6252
2022-11-30T10:44:05.765Z,6052
2022-11-30T10:45:05.812Z,5908
2022-11-30T10:46:05.741Z,5900
2022-11-30T10:47:05.851Z,5984
2022-11-30T10:48:05.943Z,6052
2022-11-30T10:49:05.929Z,5980
2022-11-30T10:50:05.913Z,5888
2022-11-30T10:51:05.418Z,5780
2022-11-30T10:52:06.107Z,5720
2022-11-30T10:53:05.648Z,5624
2022-11-30T10:54:05.592Z,5500
2022-11-30T10:55:11.214Z,5292
2022-11-30T10:56:05.323Z,5128
2022-11-30T10:57:05.303Z,5036
2022-11-30T10:58:05.789Z,5088
2022-11-30T10:59:05.265Z,5196
2022-11-30T11:00:05.510Z,5164
2022-11-30T11:01:05.661Z,4956
2022-11-30T11:02:06.083Z,4820
2022-11-30T11:03:05.918Z,4844
2022-11-30T11:04:06.026Z,4912
2022-11-30T11:05:05.312Z,4904
2022-11-30T11:06:05.554Z,4848
2022-11-30T11:07:06.206Z,4756
2022-11-30T11:08:12.673Z,4628
2022-11-30T11:09:05.529Z,4572
2022-11-30T11:10:05.243Z,4728
2022-11-30T11:11:05.473Z,5004
2022-11-30T11:12:05.718Z,5072
2022-11-30T11:13:05.452Z,4788
2022-11-30T11:14:05.176Z,4296
2022-11-30T11:15:05.160Z,3892
2022-11-30T11:16:05.784Z,3564
2022-11-30T11:17:05.394Z,3436
2022-11-30T11:18:05.628Z,3136
2022-11-30T11:19:05.093Z,3012
2022-11-30T11:20:05.336Z,2924
2022-11-30T11:21:11.834Z,2816
2022-11-30T11:22:05.048Z,2748
2022-11-30T11:23:05.521Z,2688
2022-11-30T11:24:06.041Z,2584
2022-11-30T11:25:05.514Z,2504
2022-11-30T11:26:05.206Z,2456
2022-11-30T11:27:05.464Z,2456
2022-11-30T11:28:04.930Z,2456
2022-11-30T11:29:05.176Z,2344
2022-11-30T11:30:05.218Z,2228
2022-11-30T11:31:05.644Z,2172
2022-11-30T11:32:05.662Z,2128
2022-11-30T11:33:05.353Z,2116
2022-11-30T11:34:05.604Z,2140
2022-11-30T11:35:05.580Z,2136
2022-11-30T11:36:05.308Z,2168
2022-11-30T11:37:05.310Z,2200
2022-11-30T11:38:05.292Z,2236
2022-11-30T11:39:05.288Z,2320
2022-11-30T11:40:05.567Z,2408
2022-11-30T11:41:05.602Z,2424
2022-11-30T11:42:04.971Z,2396
2022-11-30T11:43:05.011Z,2388
2022-11-30T11:44:04.934Z,2440
2022-11-30T11:45:05.169Z,2648
2022-11-30T11:46:05.333Z,2796
2022-11-30T11:47:05.234Z,2684
2022-11-30T11:48:04.861Z,2492
2022-11-30T11:49:05.377Z,2412
2022-11-30T11:50:05.084Z,2272
2022-11-30T11:51:14.250Z,2132
2022-11-30T11:52:05.052Z,2048
2022-11-30T11:53:04.818Z,1992
2022-11-30T11:54:05.013Z,1980
2022-11-30T11:55:04.793Z,1984
2022-11-30T11:56:05.348Z,1992
2022-11-30T11:57:04.752Z,1988
2022-11-30T11:58:04.969Z,1956
2022-11-30T11:59:05.211Z,1924
2022-11-30T12:00:04.960Z,1888
2022-11-30T12:01:43.976Z,1864
2022-11-30T12:02:04.887Z,1864
2022-11-30T12:03:05.162Z,1860
2022-11-30T12:04:05.303Z,1864
2022-11-30T12:05:04.854Z,1864
2022-11-30T12:06:04.834Z,1864
2022-11-30T12:07:04.805Z,1864
2022-11-30T12:08:05.031Z,1864
2022-11-30T12:09:04.781Z,1860
2022-11-30T12:10:12.767Z,1860
2022-11-30T12:11:04.484Z,1864
2022-11-30T12:12:05.102Z,1888
2022-11-30T12:13:04.998Z,1908
2022-11-30T12:14:04.698Z,1920
2022-11-30T12:15:04.987Z,1924
2022-11-30T12:16:04.753Z,1964
2022-11-30T12:17:04.914Z,2012
2022-11-30T12:18:07.761Z,2008
2022-11-30T12:19:04.368Z,2000
2022-11-30T12:20:04.617Z,1996
2022-11-30T12:21:04.875Z,2004
2022-11-30T12:22:04.565Z,2028
2022-11-30T12:23:04.301Z,2092
2022-11-30T12:24:05.109Z,2164
2022-11-30T12:25:10.908Z,2244
2022-11-30T12:26:04.552Z,2324
2022-11-30T12:27:04.733Z,2464
2022-11-30T12:28:04.798Z,2592
2022-11-30T12:29:04.491Z,2728
2022-11-30T12:30:04.455Z,2892
2022-11-30T12:31:04.710Z,3016
2022-11-30T12:32:04.141Z,3164
2022-11-30T12:33:04.387Z,3384
2022-11-30T12:34:04.614Z,3612
2022-11-30T12:35:04.350Z,4248
2022-11-30T12:36:04.597Z,4572
2022-11-30T12:37:04.059Z,4436
2022-11-30T12:38:04.531Z,4160
2022-11-30T12:39:04.540Z,4080
2022-11-30T12:40:04.264Z,4052
2022-11-30T12:41:04.499Z,4004
2022-11-30T12:42:03.718Z,3856
2022-11-30T12:43:03.956Z,3624
2022-11-30T12:44:04.672Z,3524
2022-11-30T12:45:04.222Z,3372
2022-11-30T12:46:04.494Z,3284
2022-11-30T12:47:04.177Z,3248
2022-11-30T12:48:04.142Z,3348
2022-11-30T12:49:04.387Z,3232
2022-11-30T12:50:04.376Z,3168
2022-11-30T12:51:04.085Z,3216
2022-11-30T12:52:04.072Z,3272
2022-11-30T12:53:03.805Z,3300
2022-11-30T12:54:04.060Z,3244
2022-11-30T12:55:03.787Z,3148
2022-11-30T12:56:04.272Z,2980
2022-11-30T12:57:04.009Z,2848
2022-11-30T12:58:03.967Z,2764
2022-11-30T12:59:03.713Z,2784
2022-11-30T13:00:04.039Z,2788
2022-11-30T13:01:04.485Z,2756
2022-11-30T13:02:04.133Z,2684
2022-11-30T13:03:03.896Z,2556
2022-11-30T13:04:03.877Z,2472
2022-11-30T13:05:06.562Z,2416
2022-11-30T13:06:04.093Z,2420
2022-11-30T13:07:03.589Z,2408
2022-11-30T13:08:04.269Z,2528
2022-11-30T13:09:04.067Z,2572
2022-11-30T13:10:03.526Z,2496
2022-11-30T13:11:03.874Z,2400
2022-11-30T13:12:03.766Z,2276
2022-11-30T13:13:04.065Z,2224
2022-11-30T13:14:03.457Z,2200
2022-11-30T13:15:04.038Z,2188
2022-11-30T13:16:04.022Z,2212
2022-11-30T13:17:04.059Z,2280
2022-11-30T13:18:03.391Z,2324
2022-11-30T13:19:04.544Z,2304
2022-11-30T13:20:04.022Z,2244
2022-11-30T13:21:11.855Z,2148
2022-11-30T13:22:03.729Z,2132
2022-11-30T13:23:04.241Z,2196
2022-11-30T13:24:03.969Z,2264
2022-11-30T13:25:03.689Z,2332
2022-11-30T13:26:15.164Z,2284
2022-11-30T13:27:03.910Z,2228
2022-11-30T13:28:05.508Z,2132
2022-11-30T13:29:04.207Z,2052
2022-11-30T13:30:03.853Z,1972
2022-11-30T13:31:04.607Z,1920
2022-11-30T13:32:04.543Z,1892
2022-11-30T13:33:05.480Z,1856
2022-11-30T13:34:03.790Z,1756
2022-11-30T13:35:03.773Z,1580
2022-11-30T13:36:04.268Z,1464
2022-11-30T13:37:03.985Z,1400
2022-11-30T13:38:43.214Z,1396
2022-11-30T13:39:03.957Z,1380
2022-11-30T13:40:04.192Z,1308
2022-11-30T13:41:03.924Z,1208
2022-11-30T13:42:03.909Z,1080
2022-11-30T13:43:03.655Z,1000
2022-11-30T13:44:03.866Z,940
2022-11-30T13:45:03.860Z,880
2022-11-30T13:46:03.836Z,852
2022-11-30T13:47:04.108Z,868
2022-11-30T13:48:03.901Z,848
2022-11-30T13:49:04.070Z,840
2022-11-30T13:50:03.470Z,856
2022-11-30T13:51:03.501Z,848
2022-11-30T13:52:29.358Z,860
2022-11-30T13:53:04.328Z,856
2022-11-30T13:54:32.951Z,772
2022-11-30T13:55:03.437Z,760
2022-11-30T13:56:03.925Z,756
2022-11-30T13:57:03.761Z,756
2022-11-30T13:58:03.907Z,756
2022-11-30T13:59:03.366Z,732
2022-11-30T14:00:03.995Z,700
2022-11-30T14:01:04.062Z,692
2022-11-30T14:02:03.932Z,716
2022-11-30T14:03:03.560Z,760
2022-11-30T14:04:03.963Z,788
2022-11-30T14:05:03.300Z,780
2022-11-30T14:06:03.494Z,732
2022-11-30T14:07:03.749Z,712
2022-11-30T14:08:03.894Z,728
2022-11-30T14:09:03.447Z,764
2022-11-30T14:10:03.308Z,784
2022-11-30T14:11:03.424Z,736
2022-11-30T14:12:03.649Z,716
2022-11-30T14:13:03.431Z,708
2022-11-30T14:14:03.113Z,672
2022-11-30T14:15:03.095Z,600
2022-11-30T14:16:03.767Z,540
2022-11-30T14:17:03.054Z,512
2022-11-30T14:18:03.296Z,508
2022-11-30T14:19:04.220Z,508
2022-11-30T14:20:04.259Z,488
2022-11-30T14:21:03.914Z,464
2022-11-30T14:22:03.633Z,452
2022-11-30T14:23:04.112Z,436
2022-11-30T14:24:04.123Z,404
2022-11-30T14:25:03.567Z,376
2022-11-30T14:26:10.651Z,360
2022-11-30T14:27:03.804Z,356
2022-11-30T14:28:04.031Z,356
2022-11-30T14:29:03.755Z,344